createdAt,value
2022-09-06T00:01:13.448Z,19.60
2022-09-06T00:03:46.717Z,19.60
2022-09-06T00:06:20.313Z,19.60
2022-09-06T00:08:53.231Z,19.40
2022-09-06T00:11:26.009Z,19.40
2022-09-06T00:13:58.933Z,19.50
2022-09-06T00:16:31.770Z,19.30
2022-09-06T00:19:04.708Z,19.30
2022-09-06T00:21:37.618Z,19.30
2022-09-06T00:24:10.351Z,19.40
2022-09-06T00:26:43.188Z,19.40
2022-09-06T00:29:16.006Z,19.20
2022-09-06T00:31:48.834Z,19.20
2022-09-06T00:34:21.664Z,19.10
2022-09-06T00:36:54.888Z,19.00
2022-09-06T00:39:27.784Z,18.90
2022-09-06T00:42:00.771Z,18.90
2022-09-06T00:44:33.558Z,18.80
2022-09-06T00:47:08.286Z,18.80
2022-09-06T00:49:46.492Z,18.90
2022-09-06T00:52:20.254Z,18.90
2022-09-06T00:54:53.926Z,18.90
2022-09-06T00:57:27.264Z,18.90
2022-09-06T01:00:02.080Z,19.00
2022-09-06T01:02:35.141Z,19.00
2022-09-06T01:05:08.613Z,19.00
2022-09-06T01:07:59.667Z,19.00
2022-09-06T01:10:46.759Z,19.10
2022-09-06T01:13:22.508Z,19.00
2022-09-06T01:16:07.255Z,19.00
2022-09-06T01:18:59.104Z,19.00
2022-09-06T01:22:13.382Z,19.00
2022-09-06T01:25:13.842Z,19.00
2022-09-06T01:28:04.719Z,19.00
2022-09-06T01:30:44.791Z,19.00
2022-09-06T01:33:32.221Z,19.10
2022-09-06T01:36:09.636Z,19.00
2022-09-06T01:38:42.617Z,19.10
2022-09-06T01:41:15.360Z,19.10
2022-09-06T01:43:50.503Z,19.10
2022-09-06T01:46:35.603Z,19.10
2022-09-06T01:49:38.759Z,19.10
2022-09-06T01:52:26.023Z,19.10
2022-09-06T01:55:10.604Z,19.10
2022-09-06T01:58:22.708Z,19.10
2022-09-06T02:01:03.210Z,19.00
2022-09-06T02:03:48.535Z,18.90
2022-09-06T02:06:27.057Z,18.90
2022-09-06T02:09:14.945Z,18.90
2022-09-06T02:12:00.019Z,18.80
2022-09-06T02:14:45.991Z,18.80
2022-09-06T02:17:23.734Z,18.80
2022-09-06T02:20:04.386Z,18.70
2022-09-06T02:22:41.576Z,18.70
2022-09-06T02:25:23.286Z,18.70
2022-09-06T02:27:58.370Z,18.60
2022-09-06T02:30:34.400Z,18.60
2022-09-06T02:33:14.464Z,18.50
2022-09-06T02:35:52.642Z,18.40
2022-09-06T02:38:27.281Z,18.40
2022-09-06T02:41:00.662Z,18.30
2022-09-06T02:43:33.964Z,18.20
2022-09-06T02:46:06.890Z,18.10
2022-09-06T02:48:39.765Z,18.10
2022-09-06T02:51:12.495Z,18.10
2022-09-06T02:53:45.303Z,18.10
2022-09-06T02:56:18.121Z,18.10
2022-09-06T02:58:50.880Z,18.10
2022-09-06T03:01:23.848Z,18.00
2022-09-06T03:03:57.509Z,18.00
2022-09-06T03:06:30.750Z,18.00
2022-09-06T03:09:03.798Z,18.00
2022-09-06T03:11:37.792Z,18.00
2022-09-06T03:14:10.652Z,17.90
2022-09-06T03:16:43.779Z,17.90
2022-09-06T03:19:17.846Z,17.90
2022-09-06T03:21:50.667Z,17.90
2022-09-06T03:24:23.469Z,18.00
2022-09-06T03:26:56.234Z,17.90
2022-09-06T03:29:29.082Z,17.90
2022-09-06T03:32:03.151Z,18.00
2022-09-06T03:34:36.068Z,18.00
2022-09-06T03:37:08.850Z,18.00
2022-09-06T03:39:41.733Z,18.00
2022-09-06T03:42:14.605Z,18.00
2022-09-06T03:44:47.649Z,18.00
2022-09-06T03:47:20.928Z,18.10
2022-09-06T03:49:53.700Z,18.10
2022-09-06T03:52:26.500Z,18.10
2022-09-06T03:54:59.251Z,18.10
2022-09-06T03:57:32.210Z,18.10
2022-09-06T04:00:05.558Z,18.10
2022-09-06T04:02:44.212Z,18.10
2022-09-06T04:05:17.703Z,18.00
2022-09-06T04:07:50.635Z,18.00
2022-09-06T04:10:23.403Z,18.00
2022-09-06T04:12:56.134Z,18.00
2022-09-06T04:15:28.878Z,18.00
2022-09-06T04:18:03.972Z,18.00
2022-09-06T04:20:39.962Z,18.00
2022-09-06T04:23:12.788Z,17.90
2022-09-06T04:25:49.736Z,17.90
2022-09-06T04:28:23.171Z,17.90
2022-09-06T04:31:03.276Z,17.90
2022-09-06T04:33:38.621Z,17.90
2022-09-06T04:36:12.343Z,18.00
2022-09-06T04:38:45.507Z,17.90
2022-09-06T04:41:18.783Z,17.80
2022-09-06T04:43:51.619Z,17.80
2022-09-06T04:46:27.583Z,17.70
2022-09-06T04:49:01.487Z,17.70
2022-09-06T04:51:34.258Z,17.70
2022-09-06T04:54:07.159Z,17.70
2022-09-06T04:56:39.970Z,17.70
2022-09-06T04:59:12.835Z,17.70
2022-09-06T05:01:45.674Z,17.80
2022-09-06T05:04:18.578Z,17.80
2022-09-06T05:07:01.914Z,17.70
2022-09-06T05:09:35.207Z,17.80
2022-09-06T05:12:08.479Z,17.80
2022-09-06T05:14:41.227Z,17.80
2022-09-06T05:17:14.711Z,17.90
2022-09-06T05:19:48.366Z,17.90
2022-09-06T05:22:21.212Z,17.90
2022-09-06T05:24:53.991Z,17.90
2022-09-06T05:27:26.824Z,17.90
2022-09-06T05:29:59.713Z,17.90
2022-09-06T05:32:32.530Z,17.90
2022-09-06T05:35:05.491Z,17.90
2022-09-06T05:37:38.369Z,18.00
2022-09-06T05:40:12.089Z,18.00
2022-09-06T05:42:44.923Z,18.00
2022-09-06T05:45:17.701Z,18.00
2022-09-06T05:47:50.437Z,18.00
2022-09-06T05:50:23.324Z,18.00
2022-09-06T05:52:56.585Z,18.10
2022-09-06T05:55:29.445Z,18.10
2022-09-06T05:58:02.225Z,18.10
2022-09-06T06:00:35.026Z,18.10
2022-09-06T06:03:07.762Z,18.20
2022-09-06T06:05:40.619Z,18.20
2022-09-06T06:08:13.491Z,18.20
2022-09-06T06:10:46.302Z,18.30
2022-09-06T06:13:19.038Z,18.30
2022-09-06T06:15:51.993Z,18.30
2022-09-06T06:18:24.890Z,18.30
2022-09-06T06:21:29.594Z,18.40
2022-09-06T06:24:04.817Z,18.50
2022-09-06T06:26:38.101Z,18.50
2022-09-06T06:29:10.913Z,18.60
2022-09-06T06:31:43.736Z,18.70
2022-09-06T06:34:18.121Z,18.70
2022-09-06T06:36:50.898Z,18.80
2022-09-06T06:39:23.732Z,18.80
2022-09-06T06:41:56.565Z,18.90
2022-09-06T06:44:43.559Z,19.00
2022-09-06T06:47:16.370Z,19.10
2022-09-06T06:49:49.086Z,19.20
2022-09-06T06:52:22.015Z,19.40
2022-09-06T06:54:54.758Z,19.50
2022-09-06T06:57:27.571Z,19.60
2022-09-06T07:00:00.361Z,19.70
2022-09-06T07:02:33.314Z,19.80
2022-09-06T07:07:59.102Z,20.20
2022-09-06T07:13:05.493Z,20.40
2022-09-06T07:15:38.237Z,20.50
2022-09-06T07:18:11.018Z,20.60
2022-09-06T07:26:30.717Z,20.90
2022-09-06T07:29:05.313Z,21.00
2022-09-06T07:34:33.082Z,21.10
2022-09-06T07:37:05.939Z,21.20
2022-09-06T07:39:38.991Z,21.30
2022-09-06T07:42:11.791Z,21.50
2022-09-06T07:44:44.554Z,21.70
2022-09-06T07:53:11.233Z,22.20
2022-09-06T07:55:48.664Z,22.30
2022-09-06T07:58:21.525Z,22.40
2022-09-06T08:00:54.457Z,22.50
2022-09-06T08:03:27.398Z,22.60
2022-09-06T08:11:34.797Z,22.80
2022-09-06T08:14:09.831Z,22.90
2022-09-06T08:16:42.615Z,22.90
2022-09-06T08:19:15.498Z,22.90
2022-09-06T08:21:48.258Z,23.00
2022-09-06T08:24:21.073Z,23.10
2022-09-06T08:26:53.818Z,23.20
2022-09-06T08:29:27.371Z,23.30
2022-09-06T08:32:00.292Z,23.40
2022-09-06T08:34:33.413Z,23.50
2022-09-06T08:37:06.545Z,23.60
2022-09-06T08:39:39.340Z,23.60
2022-09-06T08:42:13.013Z,23.70
2022-09-06T08:44:58.095Z,23.70
2022-09-06T08:47:31.741Z,23.80
2022-09-06T08:50:07.955Z,24.00
2022-09-06T08:53:18.373Z,24.00
2022-09-06T08:56:13.711Z,24.00
2022-09-06T08:59:06.570Z,24.20
2022-09-06T09:02:13.311Z,24.20
2022-09-06T09:04:56.017Z,24.30
2022-09-06T09:08:02.386Z,24.40
2022-09-06T09:10:42.414Z,24.30
2022-09-06T09:13:34.341Z,24.40
2022-09-06T09:16:07.506Z,24.30
2022-09-06T09:18:45.386Z,24.30
2022-09-06T09:21:30.757Z,24.50
2022-09-06T09:24:13.015Z,24.70
2022-09-06T09:26:57.986Z,24.80
2022-09-06T09:29:35.697Z,25.00
2022-09-06T09:32:09.073Z,25.20
2022-09-06T09:34:41.849Z,25.40
2022-09-06T09:40:30.158Z,25.40
2022-09-06T09:43:13.500Z,25.50
2022-09-06T09:45:57.137Z,25.60
2022-09-06T09:48:30.080Z,25.60
2022-09-06T09:51:25.477Z,25.80
2022-09-06T09:54:03.849Z,26.00
2022-09-06T09:56:52.902Z,26.10
2022-09-06T09:59:26.867Z,26.10
2022-09-06T10:02:01.701Z,26.30
2022-09-06T10:04:49.589Z,26.50
2022-09-06T10:07:26.246Z,26.60
2022-09-06T10:10:12.317Z,26.70
2022-09-06T10:12:45.113Z,26.80
2022-09-06T10:15:36.017Z,27.00
2022-09-06T10:18:21.033Z,27.10
2022-09-06T10:26:44.430Z,27.50
2022-09-06T10:29:44.000Z,27.50
2022-09-06T10:32:42.510Z,27.50
2022-09-06T10:35:23.928Z,27.60
2022-09-06T10:38:44.222Z,27.80
2022-09-06T10:41:47.207Z,27.80
2022-09-06T10:44:57.989Z,27.80
2022-09-06T10:47:51.621Z,27.90
2022-09-06T10:50:49.594Z,27.90
2022-09-06T10:53:22.312Z,28.00
2022-09-06T10:56:13.134Z,28.10
2022-09-06T11:02:02.252Z,28.50
2022-09-06T11:10:55.514Z,28.70
2022-09-06T11:13:28.350Z,28.90
2022-09-06T11:16:18.753Z,29.00
2022-09-06T11:19:03.216Z,29.10
2022-09-06T11:24:22.037Z,29.40
2022-09-06T11:29:32.953Z,29.80
2022-09-06T11:32:25.774Z,30.00
2022-09-06T11:35:01.163Z,30.00
2022-09-06T11:37:39.408Z,30.10
2022-09-06T11:43:03.693Z,30.40
2022-09-06T11:45:49.598Z,30.50
2022-09-06T11:48:26.306Z,30.60
2022-09-06T11:50:59.244Z,30.70
2022-09-06T11:53:57.716Z,30.70
2022-09-06T11:56:49.533Z,30.80
2022-09-06T11:59:47.635Z,30.50
2022-09-06T12:02:35.188Z,30.30
2022-09-06T12:05:15.660Z,30.10
2022-09-06T12:08:30.484Z,29.70
2022-09-06T12:11:06.724Z,29.30
2022-09-06T12:14:05.776Z,29.00
2022-09-06T12:16:57.489Z,29.10
2022-09-06T12:20:08.655Z,29.30
2022-09-06T12:22:51.913Z,29.40
2022-09-06T12:25:34.162Z,29.60
2022-09-06T12:28:19.417Z,29.70
2022-09-06T12:30:52.288Z,29.70
2022-09-06T12:33:52.322Z,29.60
2022-09-06T12:36:31.302Z,29.90
2022-09-06T12:39:10.151Z,30.10
2022-09-06T12:41:50.029Z,30.20
2022-09-06T12:45:13.135Z,30.60
2022-09-06T12:48:08.573Z,30.80
2022-09-06T12:50:41.519Z,31.00
2022-09-06T12:53:24.911Z,31.00
2022-09-06T12:56:08.793Z,30.90
2022-09-06T12:58:41.634Z,30.60
2022-09-06T13:01:32.803Z,30.40
2022-09-06T13:04:11.629Z,30.10
2022-09-06T13:06:46.753Z,29.90
2022-09-06T13:09:22.275Z,29.70
2022-09-06T13:12:03.375Z,29.50
2022-09-06T13:14:36.603Z,29.30
2022-09-06T13:17:24.367Z,29.20
2022-09-06T13:19:58.132Z,29.10
2022-09-06T13:22:45.762Z,28.90
2022-09-06T13:25:21.492Z,28.80
2022-09-06T13:27:58.863Z,28.80
2022-09-06T13:30:36.335Z,28.70
2022-09-06T13:33:24.782Z,28.70
2022-09-06T13:36:08.971Z,28.50
2022-09-06T13:38:44.838Z,28.50
2022-09-06T13:41:26.670Z,28.40
2022-09-06T13:44:06.003Z,28.40
2022-09-06T13:46:38.739Z,28.40
2022-09-06T13:49:11.693Z,28.30
2022-09-06T13:51:44.448Z,28.20
2022-09-06T13:54:17.334Z,28.10
2022-09-06T13:56:50.612Z,28.00
2022-09-06T13:59:24.746Z,27.90
2022-09-06T14:02:12.932Z,27.90
2022-09-06T14:04:45.919Z,27.80
2022-09-06T14:07:18.619Z,27.80
2022-09-06T14:09:51.896Z,27.80
2022-09-06T14:12:25.149Z,27.90
2022-09-06T14:14:58.069Z,27.90
2022-09-06T14:17:32.757Z,27.90
2022-09-06T14:20:06.122Z,27.90
2022-09-06T14:22:39.028Z,27.90
2022-09-06T14:25:11.894Z,28.00
2022-09-06T14:27:44.724Z,28.00
2022-09-06T14:30:17.934Z,27.90
2022-09-06T14:32:50.693Z,27.90
2022-09-06T14:35:23.808Z,27.80
2022-09-06T14:37:56.632Z,27.80
2022-09-06T14:40:29.616Z,27.70
2022-09-06T14:43:02.828Z,27.60
2022-09-06T14:45:36.217Z,27.60
2022-09-06T14:48:09.343Z,27.50
2022-09-06T14:50:42.291Z,27.50
2022-09-06T14:53:38.835Z,27.40
2022-09-06T14:56:09.898Z,27.40
2022-09-06T14:58:43.339Z,27.40
2022-09-06T15:01:18.961Z,27.40
2022-09-06T15:03:55.592Z,27.40
2022-09-06T15:06:30.088Z,27.40
2022-09-06T15:09:03.481Z,27.40
2022-09-06T15:11:39.307Z,27.30
2022-09-06T15:14:34.444Z,27.40
2022-09-06T15:17:08.875Z,27.30
2022-09-06T15:19:41.745Z,27.30
2022-09-06T15:22:14.611Z,27.20
2022-09-06T15:24:47.510Z,27.20
2022-09-06T15:27:22.727Z,27.20
2022-09-06T15:29:55.541Z,27.10
2022-09-06T15:32:29.295Z,27.10
2022-09-06T15:35:04.689Z,27.10
2022-09-06T15:37:40.540Z,27.00
2022-09-06T15:40:13.812Z,27.00
2022-09-06T15:42:47.044Z,27.00
2022-09-06T15:45:19.828Z,26.90
2022-09-06T15:47:54.839Z,27.00
2022-09-06T15:50:49.915Z,27.00
2022-09-06T15:53:20.680Z,26.90
2022-09-06T15:55:58.768Z,26.90
2022-09-06T15:58:31.922Z,26.90
2022-09-06T16:01:10.061Z,26.80
2022-09-06T16:03:52.764Z,26.80
2022-09-06T16:06:27.776Z,26.70
2022-09-06T16:09:08.110Z,26.60
2022-09-06T16:11:41.910Z,26.60
2022-09-06T16:14:16.285Z,26.50
2022-09-06T16:16:49.725Z,26.50
2022-09-06T16:19:23.055Z,26.40
2022-09-06T16:21:55.941Z,26.40
2022-09-06T16:24:30.371Z,26.40
2022-09-06T16:27:03.164Z,26.30
2022-09-06T16:29:36.091Z,26.30
2022-09-06T16:32:09.849Z,26.30
2022-09-06T16:34:43.606Z,26.20
2022-09-06T16:37:16.456Z,26.30
2022-09-06T16:39:49.317Z,26.20
2022-09-06T16:42:22.508Z,26.20
2022-09-06T16:44:56.476Z,26.20
2022-09-06T16:47:31.706Z,26.20
2022-09-06T16:50:04.920Z,26.30
2022-09-06T16:52:48.345Z,26.30
2022-09-06T16:55:26.299Z,26.30
2022-09-06T16:57:59.178Z,26.30
2022-09-06T17:00:32.089Z,26.30
2022-09-06T17:03:06.677Z,26.30
2022-09-06T17:05:39.982Z,26.30
2022-09-06T17:08:12.837Z,26.20
2022-09-06T17:11:15.287Z,26.20
2022-09-06T17:18:19.853Z,26.10
2022-09-06T17:20:58.083Z,26.10
2022-09-06T17:23:31.939Z,26.00
2022-09-06T17:26:05.641Z,26.00
2022-09-06T17:28:40.917Z,26.00
2022-09-06T17:31:15.315Z,25.90
2022-09-06T17:33:50.915Z,25.90
2022-09-06T17:36:30.660Z,25.80
2022-09-06T17:39:07.200Z,25.80
2022-09-06T17:41:46.032Z,25.80
2022-09-06T17:44:22.760Z,25.70
2022-09-06T17:47:12.597Z,25.70
2022-09-06T17:49:47.162Z,25.60
2022-09-06T17:52:21.838Z,25.60
2022-09-06T17:54:58.994Z,25.50
2022-09-06T17:57:34.936Z,25.50
2022-09-06T18:00:09.109Z,25.50
2022-09-06T18:02:42.291Z,25.40
2022-09-06T18:05:15.602Z,25.40
2022-09-06T18:07:48.644Z,25.30
2022-09-06T18:10:21.413Z,25.30
2022-09-06T18:12:56.410Z,25.30
2022-09-06T18:15:29.475Z,25.20
2022-09-06T18:18:02.363Z,25.20
2022-09-06T18:20:35.163Z,25.10
2022-09-06T18:23:08.008Z,25.10
2022-09-06T18:25:40.963Z,25.00
2022-09-06T18:28:14.696Z,25.00
2022-09-06T18:30:47.492Z,25.00
2022-09-06T18:33:26.196Z,24.90
2022-09-06T18:35:59.364Z,24.90
2022-09-06T18:38:32.821Z,24.90
2022-09-06T18:41:08.017Z,24.80
2022-09-06T18:43:40.799Z,24.80
2022-09-06T18:46:13.788Z,24.80
2022-09-06T18:48:46.943Z,24.80
2022-09-06T18:51:19.818Z,24.70
2022-09-06T18:53:56.589Z,24.70
2022-09-06T18:56:29.481Z,24.70
2022-09-06T18:59:03.156Z,24.60
2022-09-06T19:01:36.553Z,24.50
2022-09-06T19:04:10.473Z,24.50
2022-09-06T19:06:44.457Z,24.40
2022-09-06T19:09:17.508Z,24.40
2022-09-06T19:11:52.639Z,24.30
2022-09-06T19:14:25.660Z,24.30
2022-09-06T19:16:58.479Z,24.20
2022-09-06T19:19:31.948Z,24.10
2022-09-06T19:22:13.941Z,24.10
2022-09-06T19:25:45.582Z,24.00
2022-09-06T19:28:18.310Z,23.90
2022-09-06T19:30:51.421Z,23.90
2022-09-06T19:33:25.567Z,23.90
2022-09-06T19:39:14.856Z,23.80
2022-09-06T19:41:47.884Z,23.80
2022-09-06T19:44:20.939Z,23.80
2022-09-06T19:46:53.905Z,23.80
2022-09-06T19:49:26.966Z,23.80
2022-09-06T19:51:59.757Z,23.70
2022-09-06T19:54:32.619Z,23.70
2022-09-06T19:57:06.026Z,23.70
2022-09-06T19:59:39.807Z,23.60
2022-09-06T20:02:13.284Z,23.60
2022-09-06T20:04:46.697Z,23.50
2022-09-06T20:07:19.462Z,23.50
2022-09-06T20:09:52.702Z,23.50
2022-09-06T20:12:25.584Z,23.40
2022-09-06T20:14:58.597Z,23.40
2022-09-06T20:17:33.997Z,23.40
2022-09-06T20:20:07.706Z,23.40
2022-09-06T20:22:44.849Z,23.40
2022-09-06T20:25:17.744Z,23.40
2022-09-06T20:27:50.577Z,23.30
2022-09-06T20:30:23.450Z,23.30
2022-09-06T20:32:56.469Z,23.30
2022-09-06T20:35:29.373Z,23.20
2022-09-06T20:38:02.107Z,23.20
2022-09-06T20:40:34.984Z,23.20
2022-09-06T20:43:07.812Z,23.10
2022-09-06T20:45:41.582Z,23.10
2022-09-06T20:48:14.367Z,23.10
2022-09-06T20:50:55.381Z,23.10
2022-09-06T20:53:29.713Z,23.00
2022-09-06T20:56:09.089Z,23.00
2022-09-06T20:58:42.628Z,23.00
2022-09-06T21:01:42.280Z,23.00
2022-09-06T21:07:17.968Z,22.90
2022-09-06T21:09:50.789Z,22.90
2022-09-06T21:12:48.993Z,22.80
2022-09-06T21:15:21.833Z,22.70
2022-09-06T21:17:54.705Z,22.70
2022-09-06T21:20:27.612Z,22.70
2022-09-06T21:23:00.508Z,22.60
2022-09-06T21:25:33.720Z,22.60
2022-09-06T21:28:06.615Z,22.60
2022-09-06T21:30:39.485Z,22.50
2022-09-06T21:33:12.360Z,22.40
2022-09-06T21:35:45.162Z,22.30
2022-09-06T21:38:17.992Z,22.20
2022-09-06T21:40:50.743Z,22.10
2022-09-06T21:43:23.702Z,22.00
2022-09-06T21:45:58.097Z,22.00
2022-09-06T21:48:31.071Z,21.90
2022-09-06T21:51:06.066Z,21.80
2022-09-06T21:53:38.862Z,21.60
2022-09-06T21:56:12.438Z,21.60
2022-09-06T21:58:53.041Z,21.50
2022-09-06T22:01:28.633Z,21.40
2022-09-06T22:04:02.224Z,21.40
2022-09-06T22:06:35.829Z,21.40
2022-09-06T22:09:11.193Z,21.40
2022-09-06T22:11:44.548Z,21.30
2022-09-06T22:14:17.437Z,21.40
2022-09-06T22:16:51.954Z,21.40
2022-09-06T22:19:24.893Z,21.30
2022-09-06T22:21:57.691Z,21.30
2022-09-06T22:24:30.537Z,21.30
2022-09-06T22:27:03.496Z,21.30
2022-09-06T22:29:36.302Z,21.20
2022-09-06T22:32:10.405Z,21.20
2022-09-06T22:34:44.364Z,21.10
2022-09-06T22:37:17.191Z,21.20
2022-09-06T22:39:50.661Z,21.10
2022-09-06T22:42:23.511Z,21.10
2022-09-06T22:44:56.981Z,21.00
2022-09-06T22:47:29.760Z,21.00
2022-09-06T22:50:02.891Z,21.00
2022-09-06T22:55:51.069Z,21.00
2022-09-06T22:58:26.839Z,21.00
2022-09-06T23:01:06.946Z,20.90
2022-09-06T23:03:40.888Z,20.80
2022-09-06T23:06:13.818Z,20.80
2022-09-06T23:08:46.631Z,20.70
2022-09-06T23:11:19.582Z,20.70
2022-09-06T23:13:56.321Z,20.70
2022-09-06T23:16:29.254Z,20.60
2022-09-06T23:19:02.250Z,20.60
2022-09-06T23:21:35.010Z,20.60
2022-09-06T23:24:07.938Z,20.60
2022-09-06T23:26:41.050Z,20.50
2022-09-06T23:29:14.314Z,20.50
2022-09-06T23:31:47.143Z,20.50
2022-09-06T23:34:20.081Z,20.40
2022-09-06T23:36:53.971Z,20.40
2022-09-06T23:39:28.137Z,20.40
2022-09-06T23:42:02.004Z,20.30
2022-09-06T23:44:34.871Z,20.30
2022-09-06T23:47:07.631Z,20.30
2022-09-06T23:49:40.503Z,20.30
2022-09-06T23:52:13.350Z,20.30
2022-09-06T23:54:46.226Z,20.30
2022-09-06T23:57:19.114Z,20.30
2022-09-06T23:59:52.032Z,20.30
